sensor_id;sensor_type;location;lat;lon;timestamp;temperature;humidity
17938;DHT22;16051;53.024;8.630;2022-12-18T00:03:29;-5.40;99.90
17938;DHT22;16051;53.024;8.630;2022-12-18T00:07:33;-5.20;99.90
17938;DHT22;16051;53.024;8.630;2022-12-18T00:11:35;-5.30;99.90
17938;DHT22;16051;53.024;8.630;2022-12-18T00:15:45;-5.50;99.90
17938;DHT22;16051;53.024;8.630;2022-12-18T00:19:47;-5.50;99.90
17938;DHT22;16051;53.024;8.630;2022-12-18T00:23:51;-5.40;99.90
17938;DHT22;16051;53.024;8.630;2022-12-18T00:27:53;-5.60;99.90
17938;DHT22;16051;53.024;8.630;2022-12-18T00:31:55;-5.60;99.90
17938;DHT22;16051;53.024;8.630;2022-12-18T00:36:15;-5.60;99.90
17938;DHT22;16051;53.024;8.630;2022-12-18T00:40:20;-5.60;99.90
17938;DHT22;16051;53.024;8.630;2022-12-18T00:44:22;-5.60;99.90
17938;DHT22;16051;53.024;8.630;2022-12-18T00:48:24;-5.60;99.90
17938;DHT22;16051;53.024;8.630;2022-12-18T00:52:26;-5.70;99.90
17938;DHT22;16051;53.024;8.630;2022-12-18T00:56:38;-5.70;99.90
17938;DHT22;16051;53.024;8.630;2022-12-18T01:00:41;-5.70;99.90
17938;DHT22;16051;53.024;8.630;2022-12-18T01:04:44;-5.80;99.90
17938;DHT22;16051;53.024;8.630;2022-12-18T01:08:46;-5.80;99.90
17938;DHT22;16051;53.024;8.630;2022-12-18T01:12:58;-5.70;99.90
17938;DHT22;16051;53.024;8.630;2022-12-18T01:17:00;-5.80;99.90
17938;DHT22;16051;53.024;8.630;2022-12-18T01:21:16;-5.80;99.90
17938;DHT22;16051;53.024;8.630;2022-12-18T01:25:18;-5.80;99.90
17938;DHT22;16051;53.024;8.630;2022-12-18T01:29:22;-5.90;99.90
17938;DHT22;16051;53.024;8.630;2022-12-18T01:33:24;-5.80;99.90
17938;DHT22;16051;53.024;8.630;2022-12-18T01:37:26;-5.90;99.90
17938;DHT22;16051;53.024;8.630;2022-12-18T01:41:48;-5.90;99.90
17938;DHT22;16051;53.024;8.630;2022-12-18T01:46:04;-5.90;99.90
17938;DHT22;16051;53.024;8.630;2022-12-18T01:50:09;-6.00;99.90
17938;DHT22;16051;53.024;8.630;2022-12-18T01:54:13;-6.00;99.90
17938;DHT22;16051;53.024;8.630;2022-12-18T02:02:56;-6.10;99.90
17938;DHT22;16051;53.024;8.630;2022-12-18T02:07:03;-6.10;99.90
17938;DHT22;16051;53.024;8.630;2022-12-18T02:11:38;-6.10;99.90
17938;DHT22;16051;53.024;8.630;2022-12-18T02:15:53;-6.20;99.90
17938;DHT22;16051;53.024;8.630;2022-12-18T02:20:08;-6.00;99.90
17938;DHT22;16051;53.024;8.630;2022-12-18T02:24:25;-6.10;99.90
17938;DHT22;16051;53.024;8.630;2022-12-18T02:28:40;-6.20;99.90
17938;DHT22;16051;53.024;8.630;2022-12-18T02:32:50;-6.30;99.90
17938;DHT22;16051;53.024;8.630;2022-12-18T02:36:55;-6.20;99.90
17938;DHT22;16051;53.024;8.630;2022-12-18T02:41:00;-6.30;99.90
17938;DHT22;16051;53.024;8.630;2022-12-18T02:45:06;-6.30;99.90
17938;DHT22;16051;53.024;8.630;2022-12-18T02:49:17;-6.30;99.90
17938;DHT22;16051;53.024;8.630;2022-12-18T02:53:30;-6.40;99.90
17938;DHT22;16051;53.024;8.630;2022-12-18T02:57:48;-6.40;99.90
17938;DHT22;16051;53.024;8.630;2022-12-18T03:01:58;-6.30;99.90
17938;DHT22;16051;53.024;8.630;2022-12-18T03:06:12;-6.40;99.90
17938;DHT22;16051;53.024;8.630;2022-12-18T03:10:24;-6.40;99.90
17938;DHT22;16051;53.024;8.630;2022-12-18T03:14:31;-6.50;99.90
17938;DHT22;16051;53.024;8.630;2022-12-18T03:18:38;-6.50;99.90
17938;DHT22;16051;53.024;8.630;2022-12-18T03:22:48;-6.50;99.90
17938;DHT22;16051;53.024;8.630;2022-12-18T03:26:58;-6.50;99.90
17938;DHT22;16051;53.024;8.630;2022-12-18T03:31:05;-6.50;99.90
17938;DHT22;16051;53.024;8.630;2022-12-18T03:35:15;-6.60;99.90
17938;DHT22;16051;53.024;8.630;2022-12-18T03:39:24;-6.60;99.90
17938;DHT22;16051;53.024;8.630;2022-12-18T03:43:35;-6.60;99.90
17938;DHT22;16051;53.024;8.630;2022-12-18T03:47:53;-6.60;99.90
17938;DHT22;16051;53.024;8.630;2022-12-18T03:52:04;-6.50;99.90
17938;DHT22;16051;53.024;8.630;2022-12-18T03:56:12;-6.60;99.90
17938;DHT22;16051;53.024;8.630;2022-12-18T04:00:18;-6.60;99.90
17938;DHT22;16051;53.024;8.630;2022-12-18T04:04:21;-6.60;99.90
17938;DHT22;16051;53.024;8.630;2022-12-18T04:08:27;-6.60;99.90
17938;DHT22;16051;53.024;8.630;2022-12-18T04:12:30;-6.60;99.90
17938;DHT22;16051;53.024;8.630;2022-12-18T04:16:47;-6.60;99.90
17938;DHT22;16051;53.024;8.630;2022-12-18T04:20:49;-6.60;99.90
17938;DHT22;16051;53.024;8.630;2022-12-18T04:24:53;-6.60;99.90
17938;DHT22;16051;53.024;8.630;2022-12-18T04:28:55;-6.60;99.90
17938;DHT22;16051;53.024;8.630;2022-12-18T04:32:57;-6.60;99.90
17938;DHT22;16051;53.024;8.630;2022-12-18T04:37:18;-6.60;99.90
17938;DHT22;16051;53.024;8.630;2022-12-18T04:41:22;-6.60;99.90
17938;DHT22;16051;53.024;8.630;2022-12-18T04:45:24;-6.60;99.90
17938;DHT22;16051;53.024;8.630;2022-12-18T04:49:26;-6.60;99.90
17938;DHT22;16051;53.024;8.630;2022-12-18T04:53:28;-6.60;99.90
17938;DHT22;16051;53.024;8.630;2022-12-18T04:57:42;-6.60;99.90
17938;DHT22;16051;53.024;8.630;2022-12-18T05:01:44;-6.60;99.90
17938;DHT22;16051;53.024;8.630;2022-12-18T05:05:49;-6.60;99.90
17938;DHT22;16051;53.024;8.630;2022-12-18T05:09:51;-6.60;99.90
17938;DHT22;16051;53.024;8.630;2022-12-18T05:13:54;-6.60;99.90
17938;DHT22;16051;53.024;8.630;2022-12-18T05:17:57;-6.60;99.90
17938;DHT22;16051;53.024;8.630;2022-12-18T05:21:59;-6.70;99.90
17938;DHT22;16051;53.024;8.630;2022-12-18T05:26:04;-6.70;99.90
17938;DHT22;16051;53.024;8.630;2022-12-18T05:30:10;-6.70;99.90
17938;DHT22;16051;53.024;8.630;2022-12-18T05:34:13;-6.70;99.90
17938;DHT22;16051;53.024;8.630;2022-12-18T05:38:15;-6.70;99.90
17938;DHT22;16051;53.024;8.630;2022-12-18T05:42:18;-6.70;99.90
17938;DHT22;16051;53.024;8.630;2022-12-18T05:46:21;-6.70;99.90
17938;DHT22;16051;53.024;8.630;2022-12-18T05:50:24;-6.80;99.90
17938;DHT22;16051;53.024;8.630;2022-12-18T05:54:27;-6.70;99.90
17938;DHT22;16051;53.024;8.630;2022-12-18T05:58:29;-6.80;99.90
17938;DHT22;16051;53.024;8.630;2022-12-18T06:02:33;-6.80;99.90
17938;DHT22;16051;53.024;8.630;2022-12-18T06:06:35;-6.80;99.90
17938;DHT22;16051;53.024;8.630;2022-12-18T06:10:38;-6.80;99.90
17938;DHT22;16051;53.024;8.630;2022-12-18T06:14:40;-6.80;99.90
17938;DHT22;16051;53.024;8.630;2022-12-18T06:18:56;-6.80;99.90
17938;DHT22;16051;53.024;8.630;2022-12-18T06:22:58;-6.80;99.90
17938;DHT22;16051;53.024;8.630;2022-12-18T06:27:10;-6.80;99.90
17938;DHT22;16051;53.024;8.630;2022-12-18T06:31:12;-6.80;99.90
17938;DHT22;16051;53.024;8.630;2022-12-18T06:35:16;-6.80;99.90
17938;DHT22;16051;53.024;8.630;2022-12-18T06:39:18;-6.80;99.90
17938;DHT22;16051;53.024;8.630;2022-12-18T06:43:20;-6.80;99.90
17938;DHT22;16051;53.024;8.630;2022-12-18T06:47:39;-6.90;99.90
17938;DHT22;16051;53.024;8.630;2022-12-18T06:51:43;-6.90;99.90
17938;DHT22;16051;53.024;8.630;2022-12-18T06:55:45;-6.90;99.90
17938;DHT22;16051;53.024;8.630;2022-12-18T06:59:47;-6.80;99.90
17938;DHT22;16051;53.024;8.630;2022-12-18T07:03:52;-6.90;99.90
17938;DHT22;16051;53.024;8.630;2022-12-18T07:08:14;-6.90;99.90
17938;DHT22;16051;53.024;8.630;2022-12-18T07:12:16;-6.90;99.90
17938;DHT22;16051;53.024;8.630;2022-12-18T07:16:19;-6.90;99.90
17938;DHT22;16051;53.024;8.630;2022-12-18T07:20:22;-6.90;99.90
17938;DHT22;16051;53.024;8.630;2022-12-18T07:24:25;-6.90;99.90
17938;DHT22;16051;53.024;8.630;2022-12-18T07:28:42;-6.90;99.90
17938;DHT22;16051;53.024;8.630;2022-12-18T07:32:44;-6.90;99.90
17938;DHT22;16051;53.024;8.630;2022-12-18T07:36:47;-7.00;99.90
17938;DHT22;16051;53.024;8.630;2022-12-18T07:40:50;-7.00;99.90
17938;DHT22;16051;53.024;8.630;2022-12-18T07:44:52;-7.00;99.90
17938;DHT22;16051;53.024;8.630;2022-12-18T07:48:54;-7.00;99.90
17938;DHT22;16051;53.024;8.630;2022-12-18T07:52:56;-7.00;99.90
17938;DHT22;16051;53.024;8.630;2022-12-18T07:57:00;-7.00;99.90
17938;DHT22;16051;53.024;8.630;2022-12-18T08:01:04;-6.90;99.90
17938;DHT22;16051;53.024;8.630;2022-12-18T08:05:13;-6.90;99.90
17938;DHT22;16051;53.024;8.630;2022-12-18T08:09:15;-6.90;99.90
17938;DHT22;16051;53.024;8.630;2022-12-18T08:13:19;-6.90;99.90
17938;DHT22;16051;53.024;8.630;2022-12-18T08:17:21;-6.80;99.90
17938;DHT22;16051;53.024;8.630;2022-12-18T08:21:26;-6.80;99.90
17938;DHT22;16051;53.024;8.630;2022-12-18T08:25:31;-6.70;99.90
17938;DHT22;16051;53.024;8.630;2022-12-18T08:29:34;-6.70;99.90
17938;DHT22;16051;53.024;8.630;2022-12-18T08:33:53;-6.60;99.90
17938;DHT22;16051;53.024;8.630;2022-12-18T08:37:56;-6.60;99.90
17938;DHT22;16051;53.024;8.630;2022-12-18T08:41:58;-6.50;99.90
17938;DHT22;16051;53.024;8.630;2022-12-18T08:46:35;-6.50;99.90
17938;DHT22;16051;53.024;8.630;2022-12-18T08:50:38;-6.40;99.90
17938;DHT22;16051;53.024;8.630;2022-12-18T08:54:40;-6.20;99.90
17938;DHT22;16051;53.024;8.630;2022-12-18T08:58:42;-5.90;99.90
17938;DHT22;16051;53.024;8.630;2022-12-18T09:02:46;-3.30;99.90
17938;DHT22;16051;53.024;8.630;2022-12-18T09:06:49;-1.60;99.90
17938;DHT22;16051;53.024;8.630;2022-12-18T09:10:52;-3.20;99.90
17938;DHT22;16051;53.024;8.630;2022-12-18T09:14:58;-4.20;99.90
17938;DHT22;16051;53.024;8.630;2022-12-18T09:19:05;-4.30;99.90
17938;DHT22;16051;53.024;8.630;2022-12-18T09:23:08;-4.30;99.90
17938;DHT22;16051;53.024;8.630;2022-12-18T09:27:13;-4.20;99.90
17938;DHT22;16051;53.024;8.630;2022-12-18T09:31:24;-4.10;99.90
17938;DHT22;16051;53.024;8.630;2022-12-18T09:35:46;-4.10;99.90
17938;DHT22;16051;53.024;8.630;2022-12-18T09:39:48;-3.90;99.90
17938;DHT22;16051;53.024;8.630;2022-12-18T09:44:11;-3.90;99.90
17938;DHT22;16051;53.024;8.630;2022-12-18T09:48:23;-3.80;99.90
17938;DHT22;16051;53.024;8.630;2022-12-18T09:52:34;-3.80;99.90
17938;DHT22;16051;53.024;8.630;2022-12-18T09:56:41;-3.70;99.90
17938;DHT22;16051;53.024;8.630;2022-12-18T10:00:44;-3.60;99.90
17938;DHT22;16051;53.024;8.630;2022-12-18T10:05:01;-3.50;99.90
17938;DHT22;16051;53.024;8.630;2022-12-18T10:09:13;-3.40;99.90
17938;DHT22;16051;53.024;8.630;2022-12-18T10:13:24;-3.30;99.90
17938;DHT22;16051;53.024;8.630;2022-12-18T10:17:44;-3.30;99.90
17938;DHT22;16051;53.024;8.630;2022-12-18T10:22:03;-3.20;99.90
17938;DHT22;16051;53.024;8.630;2022-12-18T10:26:16;-3.10;99.90
17938;DHT22;16051;53.024;8.630;2022-12-18T10:30:21;-3.00;99.90
17938;DHT22;16051;53.024;8.630;2022-12-18T10:34:35;-2.90;99.90
17938;DHT22;16051;53.024;8.630;2022-12-18T10:38:37;-2.90;99.90
17938;DHT22;16051;53.024;8.630;2022-12-18T10:42:41;-2.80;99.90
17938;DHT22;16051;53.024;8.630;2022-12-18T10:46:44;-2.80;99.90
17938;DHT22;16051;53.024;8.630;2022-12-18T10:50:57;-2.70;99.90
17938;DHT22;16051;53.024;8.630;2022-12-18T10:55:16;-2.60;99.90
17938;DHT22;16051;53.024;8.630;2022-12-18T10:59:50;-2.50;99.90
17938;DHT22;16051;53.024;8.630;2022-12-18T11:04:02;-2.40;99.90
17938;DHT22;16051;53.024;8.630;2022-12-18T11:08:21;-2.20;99.90
17938;DHT22;16051;53.024;8.630;2022-12-18T11:12:34;-2.20;99.90
17938;DHT22;16051;53.024;8.630;2022-12-18T11:16:45;-1.60;99.90
17938;DHT22;16051;53.024;8.630;2022-12-18T11:20:58;-1.90;99.90
17938;DHT22;16051;53.024;8.630;2022-12-18T11:25:19;-1.90;99.90
17938;DHT22;16051;53.024;8.630;2022-12-18T11:29:35;-1.90;99.90
17938;DHT22;16051;53.024;8.630;2022-12-18T11:33:43;-1.80;99.90
17938;DHT22;16051;53.024;8.630;2022-12-18T11:37:54;-1.80;99.90
17938;DHT22;16051;53.024;8.630;2022-12-18T11:42:05;-1.80;99.90
17938;DHT22;16051;53.024;8.630;2022-12-18T11:46:17;-1.70;99.90
17938;DHT22;16051;53.024;8.630;2022-12-18T11:50:48;-1.60;99.90
17938;DHT22;16051;53.024;8.630;2022-12-18T11:54:53;-1.40;99.90
17938;DHT22;16051;53.024;8.630;2022-12-18T11:59:05;-1.50;99.90
17938;DHT22;16051;53.024;8.630;2022-12-18T12:03:26;-1.50;99.90
17938;DHT22;16051;53.024;8.630;2022-12-18T12:07:54;-1.30;99.90
17938;DHT22;16051;53.024;8.630;2022-12-18T12:12:16;-1.20;99.90
17938;DHT22;16051;53.024;8.630;2022-12-18T12:16:55;-1.20;99.90
17938;DHT22;16051;53.024;8.630;2022-12-18T12:21:23;-1.00;99.90
17938;DHT22;16051;53.024;8.630;2022-12-18T12:25:38;-1.10;99.90
17938;DHT22;16051;53.024;8.630;2022-12-18T12:30:03;-1.00;99.90
17938;DHT22;16051;53.024;8.630;2022-12-18T12:34:15;-0.80;99.90
17938;DHT22;16051;53.024;8.630;2022-12-18T12:38:31;-0.90;99.90
17938;DHT22;16051;53.024;8.630;2022-12-18T12:42:43;-0.80;99.90
17938;DHT22;16051;53.024;8.630;2022-12-18T12:47:12;-0.80;99.90
17938;DHT22;16051;53.024;8.630;2022-12-18T12:51:20;-0.80;99.90
17938;DHT22;16051;53.024;8.630;2022-12-18T12:55:27;-0.80;99.90
17938;DHT22;16051;53.024;8.630;2022-12-18T12:59:39;-0.80;99.90
17938;DHT22;16051;53.024;8.630;2022-12-18T13:08:56;-0.80;99.90
17938;DHT22;16051;53.024;8.630;2022-12-18T13:13:02;-0.70;99.90
17938;DHT22;16051;53.024;8.630;2022-12-18T13:17:30;-0.80;99.90
17938;DHT22;16051;53.024;8.630;2022-12-18T13:21:54;-0.80;99.90
17938;DHT22;16051;53.024;8.630;2022-12-18T13:26:27;-0.70;99.90
17938;DHT22;16051;53.024;8.630;2022-12-18T13:30:51;-0.70;99.90
17938;DHT22;16051;53.024;8.630;2022-12-18T13:39:56;-0.70;99.90
17938;DHT22;16051;53.024;8.630;2022-12-18T13:44:11;-0.60;99.90
17938;DHT22;16051;53.024;8.630;2022-12-18T13:48:22;-0.60;99.90
17938;DHT22;16051;53.024;8.630;2022-12-18T13:52:34;-0.70;99.90
17938;DHT22;16051;53.024;8.630;2022-12-18T13:56:45;-0.60;99.90
17938;DHT22;16051;53.024;8.630;2022-12-18T14:00:58;-0.60;99.90
17938;DHT22;16051;53.024;8.630;2022-12-18T14:05:29;-0.70;99.90
17938;DHT22;16051;53.024;8.630;2022-12-18T14:09:36;-0.70;99.90
17938;DHT22;16051;53.024;8.630;2022-12-18T14:13:50;-0.70;99.90
17938;DHT22;16051;53.024;8.630;2022-12-18T14:17:55;-0.80;99.90
17938;DHT22;16051;53.024;8.630;2022-12-18T14:22:00;-0.70;99.90
17938;DHT22;16051;53.024;8.630;2022-12-18T14:26:17;-0.80;99.90
17938;DHT22;16051;53.024;8.630;2022-12-18T14:30:35;-0.80;99.90
17938;DHT22;16051;53.024;8.630;2022-12-18T14:34:39;-0.80;99.90
17938;DHT22;16051;53.024;8.630;2022-12-18T14:38:48;-0.80;99.90
17938;DHT22;16051;53.024;8.630;2022-12-18T14:42:51;-0.70;99.90
17938;DHT22;16051;53.024;8.630;2022-12-18T14:46:55;-0.80;99.90
17938;DHT22;16051;53.024;8.630;2022-12-18T14:51:00;-0.90;99.90
17938;DHT22;16051;53.024;8.630;2022-12-18T14:55:04;-0.80;99.90
17938;DHT22;16051;53.024;8.630;2022-12-18T14:59:14;-0.90;99.90
17938;DHT22;16051;53.024;8.630;2022-12-18T15:03:25;-0.90;99.90
17938;DHT22;16051;53.024;8.630;2022-12-18T15:07:40;-0.90;99.90
17938;DHT22;16051;53.024;8.630;2022-12-18T15:11:57;-1.00;99.90
17938;DHT22;16051;53.024;8.630;2022-12-18T15:16:02;-1.00;99.90
17938;DHT22;16051;53.024;8.630;2022-12-18T15:20:16;-1.10;99.90
17938;DHT22;16051;53.024;8.630;2022-12-18T15:24:24;-1.20;99.90
17938;DHT22;16051;53.024;8.630;2022-12-18T15:28:33;-1.20;99.90
17938;DHT22;16051;53.024;8.630;2022-12-18T15:32:42;-1.20;99.90
17938;DHT22;16051;53.024;8.630;2022-12-18T15:37:02;-1.30;99.90
17938;DHT22;16051;53.024;8.630;2022-12-18T15:41:12;-1.30;99.90
17938;DHT22;16051;53.024;8.630;2022-12-18T15:45:15;-1.30;99.90
17938;DHT22;16051;53.024;8.630;2022-12-18T15:49:18;-1.30;99.90
17938;DHT22;16051;53.024;8.630;2022-12-18T15:53:22;-1.30;99.90
17938;DHT22;16051;53.024;8.630;2022-12-18T15:57:26;-1.30;99.90
17938;DHT22;16051;53.024;8.630;2022-12-18T16:01:31;-1.30;99.90
17938;DHT22;16051;53.024;8.630;2022-12-18T16:05:33;-1.20;99.90
17938;DHT22;16051;53.024;8.630;2022-12-18T16:09:41;-1.20;99.90
17938;DHT22;16051;53.024;8.630;2022-12-18T16:13:49;-1.20;99.90
17938;DHT22;16051;53.024;8.630;2022-12-18T16:17:59;-1.20;99.90
17938;DHT22;16051;53.024;8.630;2022-12-18T16:22:18;-1.20;99.90
17938;DHT22;16051;53.024;8.630;2022-12-18T16:26:25;-1.20;99.90
17938;DHT22;16051;53.024;8.630;2022-12-18T16:30:29;-1.20;99.90
17938;DHT22;16051;53.024;8.630;2022-12-18T16:34:42;-1.20;99.90
17938;DHT22;16051;53.024;8.630;2022-12-18T16:38:45;-1.20;99.90
17938;DHT22;16051;53.024;8.630;2022-12-18T16:42:58;-1.20;99.90
17938;DHT22;16051;53.024;8.630;2022-12-18T16:47:02;-1.20;99.90
17938;DHT22;16051;53.024;8.630;2022-12-18T16:51:05;-1.20;99.90
17938;DHT22;16051;53.024;8.630;2022-12-18T16:55:08;-1.20;99.90
17938;DHT22;16051;53.024;8.630;2022-12-18T16:59:11;-1.20;99.90
17938;DHT22;16051;53.024;8.630;2022-12-18T17:03:22;-1.10;99.90
17938;DHT22;16051;53.024;8.630;2022-12-18T17:07:25;-1.20;99.90
17938;DHT22;16051;53.024;8.630;2022-12-18T17:11:37;-1.20;99.90
17938;DHT22;16051;53.024;8.630;2022-12-18T17:15:55;-1.10;99.90
17938;DHT22;16051;53.024;8.630;2022-12-18T17:20:16;-1.00;99.90
17938;DHT22;16051;53.024;8.630;2022-12-18T17:24:19;-1.10;99.90
17938;DHT22;16051;53.024;8.630;2022-12-18T17:28:21;-1.10;99.90
17938;DHT22;16051;53.024;8.630;2022-12-18T17:32:27;-1.00;99.90
17938;DHT22;16051;53.024;8.630;2022-12-18T17:36:39;-1.00;99.90
17938;DHT22;16051;53.024;8.630;2022-12-18T17:40:42;-1.00;99.90
17938;DHT22;16051;53.024;8.630;2022-12-18T17:44:52;-0.90;99.90
17938;DHT22;16051;53.024;8.630;2022-12-18T17:48:56;-0.90;99.90
17938;DHT22;16051;53.024;8.630;2022-12-18T17:53:02;-0.90;99.90
17938;DHT22;16051;53.024;8.630;2022-12-18T17:57:04;-0.90;99.90
17938;DHT22;16051;53.024;8.630;2022-12-18T18:01:08;-0.80;99.90
17938;DHT22;16051;53.024;8.630;2022-12-18T18:05:29;-0.90;99.90
17938;DHT22;16051;53.024;8.630;2022-12-18T18:09:32;-0.80;99.90
17938;DHT22;16051;53.024;8.630;2022-12-18T18:13:34;-0.80;99.90
17938;DHT22;16051;53.024;8.630;2022-12-18T18:17:59;-0.80;99.90
17938;DHT22;16051;53.024;8.630;2022-12-18T18:22:09;1.70;99.90
17938;DHT22;16051;53.024;8.630;2022-12-18T18:26:13;2.30;99.90
17938;DHT22;16051;53.024;8.630;2022-12-18T18:30:15;2.20;99.90
17938;DHT22;16051;53.024;8.630;2022-12-18T18:34:26;1.50;99.90
17938;DHT22;16051;53.024;8.630;2022-12-18T18:38:31;0.60;99.90
17938;DHT22;16051;53.024;8.630;2022-12-18T18:42:33;0.00;99.90
17938;DHT22;16051;53.024;8.630;2022-12-18T18:46:35;-0.20;99.90
17938;DHT22;16051;53.024;8.630;2022-12-18T18:50:37;-0.30;99.90
17938;DHT22;16051;53.024;8.630;2022-12-18T18:54:40;-0.40;99.90
17938;DHT22;16051;53.024;8.630;2022-12-18T18:58:44;-0.40;99.90
17938;DHT22;16051;53.024;8.630;2022-12-18T19:03:03;-0.40;99.90
17938;DHT22;16051;53.024;8.630;2022-12-18T19:07:07;-0.40;99.90
17938;DHT22;16051;53.024;8.630;2022-12-18T19:11:23;-0.40;99.90
17938;DHT22;16051;53.024;8.630;2022-12-18T19:15:52;-0.40;99.90
17938;DHT22;16051;53.024;8.630;2022-12-18T19:20:16;-0.40;99.90
17938;DHT22;16051;53.024;8.630;2022-12-18T19:24:18;-0.40;99.90
17938;DHT22;16051;53.024;8.630;2022-12-18T19:28:23;-0.40;99.90
17938;DHT22;16051;53.024;8.630;2022-12-18T19:32:28;-0.40;99.90
17938;DHT22;16051;53.024;8.630;2022-12-18T19:36:32;-0.30;99.90
17938;DHT22;16051;53.024;8.630;2022-12-18T19:40:39;-0.40;99.90
17938;DHT22;16051;53.024;8.630;2022-12-18T19:44:45;-0.40;99.90
17938;DHT22;16051;53.024;8.630;2022-12-18T19:48:47;-0.30;99.90
17938;DHT22;16051;53.024;8.630;2022-12-18T19:52:58;-0.30;99.90
17938;DHT22;16051;53.024;8.630;2022-12-18T19:57:00;-0.30;99.90
17938;DHT22;16051;53.024;8.630;2022-12-18T20:01:04;-0.40;99.90
17938;DHT22;16051;53.024;8.630;2022-12-18T20:05:14;-0.30;99.90
17938;DHT22;16051;53.024;8.630;2022-12-18T20:09:17;-0.40;99.90
17938;DHT22;16051;53.024;8.630;2022-12-18T20:13:19;-0.40;99.90
17938;DHT22;16051;53.024;8.630;2022-12-18T20:17:23;-0.40;99.90
17938;DHT22;16051;53.024;8.630;2022-12-18T20:21:55;-0.30;99.90
17938;DHT22;16051;53.024;8.630;2022-12-18T20:26:00;-0.30;99.90
17938;DHT22;16051;53.024;8.630;2022-12-18T20:30:03;-0.40;99.90
17938;DHT22;16051;53.024;8.630;2022-12-18T20:34:07;-0.40;99.90
17938;DHT22;16051;53.024;8.630;2022-12-18T20:38:09;-0.30;99.90
17938;DHT22;16051;53.024;8.630;2022-12-18T20:42:11;-0.30;99.90
17938;DHT22;16051;53.024;8.630;2022-12-18T20:46:26;-0.40;99.90
17938;DHT22;16051;53.024;8.630;2022-12-18T20:50:36;-0.30;99.90
17938;DHT22;16051;53.024;8.630;2022-12-18T20:54:50;-0.30;99.90
17938;DHT22;16051;53.024;8.630;2022-12-18T20:58:57;-0.30;99.90
17938;DHT22;16051;53.024;8.630;2022-12-18T21:03:00;-0.30;99.90
17938;DHT22;16051;53.024;8.630;2022-12-18T21:07:29;-0.30;99.90
17938;DHT22;16051;53.024;8.630;2022-12-18T21:11:39;-0.30;99.90
17938;DHT22;16051;53.024;8.630;2022-12-18T21:15:58;-0.20;99.90
17938;DHT22;16051;53.024;8.630;2022-12-18T21:20:01;-0.20;99.90
17938;DHT22;16051;53.024;8.630;2022-12-18T21:24:05;-0.20;99.90
17938;DHT22;16051;53.024;8.630;2022-12-18T21:28:10;-0.20;99.90
17938;DHT22;16051;53.024;8.630;2022-12-18T21:32:12;-0.30;99.90
17938;DHT22;16051;53.024;8.630;2022-12-18T21:36:15;-0.30;99.90
17938;DHT22;16051;53.024;8.630;2022-12-18T21:40:18;-0.30;99.90
17938;DHT22;16051;53.024;8.630;2022-12-18T21:44:21;-0.20;99.90
17938;DHT22;16051;53.024;8.630;2022-12-18T21:48:30;-0.20;99.90
17938;DHT22;16051;53.024;8.630;2022-12-18T21:52:33;-0.20;99.90
17938;DHT22;16051;53.024;8.630;2022-12-18T21:56:47;-0.20;99.90
17938;DHT22;16051;53.024;8.630;2022-12-18T22:01:01;-0.20;99.90
17938;DHT22;16051;53.024;8.630;2022-12-18T22:05:03;-0.20;99.90
17938;DHT22;16051;53.024;8.630;2022-12-18T22:09:06;-0.20;99.90
17938;DHT22;16051;53.024;8.630;2022-12-18T22:13:09;-0.10;99.90
17938;DHT22;16051;53.024;8.630;2022-12-18T22:17:16;-0.10;99.90
17938;DHT22;16051;53.024;8.630;2022-12-18T22:21:23;-0.10;99.90
17938;DHT22;16051;53.024;8.630;2022-12-18T22:25:26;-0.10;99.90
17938;DHT22;16051;53.024;8.630;2022-12-18T22:30:04;0.00;99.90
17938;DHT22;16051;53.024;8.630;2022-12-18T22:34:08;-0.10;99.90
17938;DHT22;16051;53.024;8.630;2022-12-18T22:38:10;-0.10;99.90
17938;DHT22;16051;53.024;8.630;2022-12-18T22:42:12;0.00;99.90
17938;DHT22;16051;53.024;8.630;2022-12-18T22:46:17;0.00;99.90
17938;DHT22;16051;53.024;8.630;2022-12-18T22:50:20;0.00;99.90
17938;DHT22;16051;53.024;8.630;2022-12-18T22:54:22;0.10;99.90
17938;DHT22;16051;53.024;8.630;2022-12-18T22:58:41;0.10;99.90
17938;DHT22;16051;53.024;8.630;2022-12-18T23:02:45;0.10;99.90
17938;DHT22;16051;53.024;8.630;2022-12-18T23:06:47;0.20;99.90
17938;DHT22;16051;53.024;8.630;2022-12-18T23:10:51;0.10;99.90
17938;DHT22;16051;53.024;8.630;2022-12-18T23:14:53;0.20;99.90
17938;DHT22;16051;53.024;8.630;2022-12-18T23:18:57;0.20;99.90
17938;DHT22;16051;53.024;8.630;2022-12-18T23:22:59;0.20;99.90
17938;DHT22;16051;53.024;8.630;2022-12-18T23:27:01;0.30;99.90
17938;DHT22;16051;53.024;8.630;2022-12-18T23:31:04;0.30;99.90
17938;DHT22;16051;53.024;8.630;2022-12-18T23:35:10;0.30;99.90
17938;DHT22;16051;53.024;8.630;2022-12-18T23:39:13;0.30;99.90
17938;DHT22;16051;53.024;8.630;2022-12-18T23:43:15;0.30;99.90
17938;DHT22;16051;53.024;8.630;2022-12-18T23:47:20;0.40;99.90
17938;DHT22;16051;53.024;8.630;2022-12-18T23:51:24;0.40;99.90
17938;DHT22;16051;53.024;8.630;2022-12-18T23:55:26;0.40;99.90
17938;DHT22;16051;53.024;8.630;2022-12-18T23:59:29;0.40;99.90
